Dynawave — 3FEH6 — position and weather

sailwx.info

Track history (hours):
 
Tides and Currents Weather Stations Pressure Air Temp Water Temp Dewpoint Dewpoint Depression Visibility Wind Speed Wind Dir Waves Ship Positions

Dynawave

Last reported at 2015-Dec-28 22:31 UTC. Time now 2016-Feb-07 05:50 UTC.
Position N 22°50' E 116°54'.
Warning: this ship's position is 40 days out of date.

Length 209 m; draft 9.6 m.

Type: Cargo ship. MMSI: 356345000.

Date/timePositionNaut miles runAvg speedWind from/ knotsBaromVisibWave heightAir tempDewpointWater temp
2015-Dec-28 22:31N 22°50' E 116°54'7 7.0
2015-Dec-28 21:32N 22°47' E 116°48'8 6.8
2015-Dec-28 20:20N 22°42' E 116°40'131 8.7
2015-Dec-28 05:17N 22°07' E 114°24'710.0
2015-Dec-28 04:33N 22°06' E 114°15'6 5.8
2015-Dec-28 03:27N 22°10' E 114°10'0 0.0
2015-Dec-28 02:30N 22°10' E 114°10'0 0.0
2015-Dec-28 01:33N 22°10' E 114°10'0 0.0
2015-Dec-28 00:30N 22°10' E 114°10'0 0.0
2015-Dec-27 23:33N 22°10' E 114°10'0 0.0
2015-Dec-27 22:18N 22°10' E 114°10'0 0.0
2015-Dec-27 21:30N 22°10' E 114°10'0 0.0
2015-Dec-27 16:24N 22°10' E 114°10'0 0.4
2015-Dec-27 15:33N 22°10' E 114°10'4 2.8
2015-Dec-27 14:18N 22°08' E 114°13'5 6.6
2015-Dec-27 13:33N 22°07' E 114°18'11 5.6
2015-Dec-27 11:33N 21°57' E 114°24'  
Track history (hours):
 
Tides and Currents Weather Stations Pressure Air Temp Water Temp Dewpoint Dewpoint Depression Visibility Wind Speed Wind Dir Waves Ship Positions

Dynawave

Last reported at 2015-Dec-28 22:31 UTC. Time now 2016-Feb-07 05:50 UTC.
Position N 22°50' E 116°54'.
Warning: this ship's position is 40 days out of date.

Length 209 m; draft 9.6 m.

Type: Cargo ship. MMSI: 356345000.

Date/timePositionNaut miles runAvg speedWind from/ knotsBaromVisibWave heightAir tempDewpointWater temp
2015-Dec-28 22:31N 22°50' E 116°54'7 7.0
2015-Dec-28 21:32N 22°47' E 116°48'8 6.8
2015-Dec-28 20:20N 22°42' E 116°40'131 8.7
2015-Dec-28 05:17N 22°07' E 114°24'710.0
2015-Dec-28 04:33N 22°06' E 114°15'6 5.8
2015-Dec-28 03:27N 22°10' E 114°10'0 0.0
2015-Dec-28 02:30N 22°10' E 114°10'0 0.0
2015-Dec-28 01:33N 22°10' E 114°10'0 0.0
2015-Dec-28 00:30N 22°10' E 114°10'0 0.0
2015-Dec-27 23:33N 22°10' E 114°10'0 0.0
2015-Dec-27 22:18N 22°10' E 114°10'0 0.0
2015-Dec-27 21:30N 22°10' E 114°10'0 0.0
2015-Dec-27 16:24N 22°10' E 114°10'0 0.4
2015-Dec-27 15:33N 22°10' E 114°10'4 2.8
2015-Dec-27 14:18N 22°08' E 114°13'5 6.6
2015-Dec-27 13:33N 22°07' E 114°18'11 5.6
2015-Dec-27 11:33N 21°57' E 114°24'  

Dump ship's entire track history